createdAt,value
2022-11-20T00:03:27.253Z,1.73
2022-11-20T00:07:39.526Z,1.88
2022-11-20T00:11:51.776Z,1.60
2022-11-20T00:16:06.687Z,1.83
2022-11-20T00:20:19.031Z,1.50
2022-11-20T00:24:31.262Z,1.77
2022-11-20T00:28:44.824Z,1.83
2022-11-20T00:33:02.008Z,1.67
2022-11-20T00:37:14.300Z,1.45
2022-11-20T00:41:28.655Z,1.60
2022-11-20T00:45:42.196Z,1.63
2022-11-20T00:49:54.438Z,1.58
2022-11-20T00:54:07.047Z,1.90
2022-11-20T00:58:19.295Z,1.75
2022-11-20T01:02:31.525Z,1.83
2022-11-20T01:06:43.779Z,1.63
2022-11-20T01:11:00.897Z,1.73
2022-11-20T01:15:13.197Z,1.85
2022-11-20T01:19:26.009Z,1.45
2022-11-20T01:23:40.927Z,1.60
2022-11-20T01:27:53.151Z,1.60
2022-11-20T01:32:05.569Z,1.80
2022-11-20T01:36:19.459Z,1.52
2022-11-20T01:40:31.695Z,2.22
2022-11-20T01:44:56.857Z,1.60
2022-11-20T01:49:21.291Z,1.90
2022-11-20T01:53:38.350Z,1.80
2022-11-20T01:57:51.698Z,1.50
2022-11-20T02:02:03.960Z,2.15
2022-11-20T02:06:29.681Z,1.85
2022-11-20T02:10:41.931Z,1.75
2022-11-20T02:14:54.193Z,1.92
2022-11-20T02:19:11.550Z,2.08
2022-11-20T02:24:03.053Z,1.55
2022-11-20T02:28:15.347Z,1.73
2022-11-20T02:32:38.196Z,1.70
2022-11-20T02:36:51.823Z,1.40
2022-11-20T02:41:04.069Z,2.53
2022-11-20T02:45:16.291Z,1.77
2022-11-20T02:49:28.557Z,1.75
2022-11-20T02:53:41.575Z,1.83
2022-11-20T02:57:59.963Z,1.30
2022-11-20T03:02:12.209Z,1.92
2022-11-20T03:06:24.450Z,1.73
2022-11-20T03:10:36.670Z,1.73
2022-11-20T03:14:52.787Z,1.60
2022-11-20T03:19:05.609Z,1.83
2022-11-20T03:23:17.834Z,1.83
2022-11-20T03:27:34.368Z,2.13
2022-11-20T03:31:46.721Z,2.08
2022-11-20T03:36:03.506Z,1.92
2022-11-20T03:40:15.881Z,1.85
2022-11-20T03:44:28.102Z,1.63
2022-11-20T03:48:40.360Z,1.70
2022-11-20T03:52:52.662Z,1.80
2022-11-20T03:57:05.043Z,1.95
2022-11-20T04:01:23.747Z,1.50
2022-11-20T04:05:36.097Z,1.75
2022-11-20T04:09:48.334Z,1.45
2022-11-20T04:14:02.790Z,1.85
2022-11-20T04:18:15.122Z,1.67
2022-11-20T04:22:27.411Z,1.50
2022-11-20T04:26:40.220Z,1.80
2022-11-20T04:30:52.466Z,1.85
2022-11-20T04:35:11.274Z,1.02
2022-11-20T04:39:23.827Z,1.40
2022-11-20T04:43:36.277Z,1.40
2022-11-20T04:47:48.506Z,1.75
2022-11-20T04:52:00.746Z,1.38
2022-11-20T04:56:14.536Z,1.67
2022-11-20T05:00:26.767Z,1.60
2022-11-20T05:04:43.041Z,1.60
2022-11-20T05:08:55.273Z,1.52
2022-11-20T05:13:07.511Z,1.70
2022-11-20T05:17:19.869Z,1.60
2022-11-20T05:21:32.398Z,1.50
2022-11-20T05:25:44.628Z,1.77
2022-11-20T05:29:56.900Z,1.40
2022-11-20T05:34:09.342Z,1.60
2022-11-20T05:38:21.558Z,1.50
2022-11-20T05:42:34.007Z,1.70
2022-11-20T05:46:46.223Z,1.83
2022-11-20T05:51:00.092Z,1.60
2022-11-20T05:55:12.346Z,1.85
2022-11-20T05:59:24.599Z,1.63
2022-11-20T06:03:37.864Z,1.75
2022-11-20T06:07:50.102Z,2.28
2022-11-20T06:12:02.390Z,1.67
2022-11-20T06:16:17.426Z,1.60
2022-11-20T06:20:29.662Z,1.85
2022-11-20T06:24:41.898Z,1.80
2022-11-20T06:28:55.118Z,2.00
2022-11-20T06:33:07.334Z,1.50
2022-11-20T06:37:19.562Z,0.88
2022-11-20T06:41:32.031Z,1.70
2022-11-20T06:45:44.559Z,1.92
2022-11-20T06:49:56.798Z,1.30
2022-11-20T06:54:09.147Z,1.50
2022-11-20T06:58:21.390Z,1.40
2022-11-20T07:02:33.644Z,1.50
2022-11-20T07:06:45.854Z,1.33
2022-11-20T07:11:05.451Z,1.52
2022-11-20T07:15:17.739Z,1.50
2022-11-20T07:19:30.440Z,1.10
2022-11-20T07:23:42.708Z,1.40
2022-11-20T07:27:58.226Z,1.27
2022-11-20T07:32:10.449Z,1.30
2022-11-20T07:36:22.734Z,1.38
2022-11-20T07:40:34.964Z,1.10
2022-11-20T07:44:47.198Z,1.40
2022-11-20T07:48:59.482Z,1.30
2022-11-20T07:53:11.910Z,1.38
2022-11-20T07:57:28.128Z,1.30
2022-11-20T08:01:41.775Z,1.10
2022-11-20T08:05:54.302Z,1.25
2022-11-20T08:10:08.167Z,1.63
2022-11-20T08:14:20.414Z,1.17
2022-11-20T08:18:33.087Z,1.30
2022-11-20T08:22:45.739Z,1.60
2022-11-20T08:27:00.805Z,1.40
2022-11-20T08:31:13.050Z,1.40
2022-11-20T08:35:25.340Z,1.25
2022-11-20T08:39:37.572Z,1.50
2022-11-20T08:43:50.627Z,1.10
2022-11-20T08:48:04.567Z,1.27
2022-11-20T08:52:16.929Z,1.25
2022-11-20T08:56:29.483Z,1.42
2022-11-20T09:00:41.771Z,1.42
2022-11-20T09:04:55.131Z,1.60
2022-11-20T09:09:07.565Z,1.35
2022-11-20T09:13:20.496Z,1.20
2022-11-20T09:17:32.986Z,1.52
2022-11-20T09:21:45.243Z,1.10
2022-11-20T09:26:01.314Z,1.35
2022-11-20T09:30:15.327Z,1.55
2022-11-20T09:34:27.657Z,1.20
2022-11-20T09:38:39.931Z,1.17
2022-11-20T09:43:05.200Z,1.00
2022-11-20T09:47:32.085Z,1.17
2022-11-20T09:52:00.089Z,0.90
2022-11-20T09:56:14.346Z,1.25
2022-11-20T10:00:29.917Z,1.00
2022-11-20T10:04:49.049Z,0.95
2022-11-20T10:09:07.276Z,1.20
2022-11-20T10:13:23.317Z,1.13
2022-11-20T10:17:53.777Z,1.48
2022-11-20T10:23:00.151Z,1.10
2022-11-20T10:27:33.698Z,1.08
2022-11-20T10:32:06.500Z,1.20
2022-11-20T10:36:45.957Z,1.13
2022-11-20T10:41:23.208Z,1.30
2022-11-20T10:45:44.886Z,1.27
2022-11-20T10:50:02.630Z,0.90
2022-11-20T10:54:26.032Z,1.10
2022-11-20T10:59:09.986Z,1.20
2022-11-20T11:03:29.732Z,0.60
2022-11-20T11:07:43.164Z,0.88
2022-11-20T11:11:55.543Z,1.10
2022-11-20T11:16:07.794Z,0.50
2022-11-20T11:20:28.971Z,0.90
2022-11-20T11:24:53.859Z,0.65
2022-11-20T11:29:06.566Z,0.65
2022-11-20T11:33:31.246Z,1.00
2022-11-20T11:37:43.511Z,0.88
2022-11-20T11:41:55.942Z,0.65
2022-11-20T11:46:26.743Z,0.70
2022-11-20T11:50:49.927Z,0.90
2022-11-20T11:55:10.286Z,0.85
2022-11-20T11:59:48.884Z,0.90
2022-11-20T12:04:17.969Z,0.70
2022-11-20T12:08:58.777Z,1.00
2022-11-20T12:13:43.202Z,1.10
2022-11-20T12:17:55.553Z,0.90
2022-11-20T12:22:28.843Z,0.52
2022-11-20T12:27:02.868Z,0.63
2022-11-20T12:31:54.641Z,0.85
2022-11-20T12:36:19.277Z,0.60
2022-11-20T12:40:50.335Z,0.80
2022-11-20T12:45:17.333Z,0.45
2022-11-20T12:49:39.712Z,0.85
2022-11-20T12:54:08.692Z,1.00
2022-11-20T12:58:34.768Z,0.80
2022-11-20T13:03:18.974Z,0.80
2022-11-20T13:07:32.365Z,1.13
2022-11-20T13:12:07.755Z,0.88
2022-11-20T13:16:38.582Z,1.00
2022-11-20T13:20:51.418Z,0.82
2022-11-20T13:25:03.753Z,0.80
2022-11-20T13:29:20.833Z,0.70
2022-11-20T13:33:36.862Z,1.00
2022-11-20T13:37:49.196Z,1.00
2022-11-20T13:42:02.591Z,1.02
2022-11-20T13:46:14.983Z,0.68
2022-11-20T13:50:45.985Z,0.93
2022-11-20T13:55:04.102Z,1.08
2022-11-20T13:59:42.132Z,0.73
2022-11-20T14:04:10.386Z,0.93
2022-11-20T14:08:34.370Z,1.00
2022-11-20T14:12:56.802Z,0.93
2022-11-20T14:17:24.705Z,1.10
2022-11-20T14:21:36.970Z,1.20
2022-11-20T14:25:49.344Z,1.20
2022-11-20T14:30:02.782Z,1.10
2022-11-20T14:34:19.644Z,1.08
2022-11-20T14:38:34.297Z,0.93
2022-11-20T14:42:50.511Z,1.10
2022-11-20T14:47:05.339Z,0.95
2022-11-20T14:51:40.055Z,0.88
2022-11-20T14:56:03.786Z,0.98
2022-11-20T15:00:16.010Z,0.70
2022-11-20T15:04:28.451Z,1.05
2022-11-20T15:08:52.858Z,1.20
2022-11-20T15:13:38.466Z,1.20
2022-11-20T15:17:50.800Z,0.75
2022-11-20T15:22:03.510Z,0.80
2022-11-20T15:26:22.298Z,0.80
2022-11-20T15:30:34.657Z,0.70
2022-11-20T15:34:47.034Z,1.00
2022-11-20T15:38:59.370Z,1.35
2022-11-20T15:43:13.581Z,0.80
2022-11-20T15:47:33.097Z,0.63
2022-11-20T15:51:48.709Z,0.47
2022-11-20T15:56:01.115Z,0.70
2022-11-20T16:00:14.828Z,0.55
2022-11-20T16:04:28.633Z,0.75
2022-11-20T16:08:41.160Z,0.82
2022-11-20T16:13:20.346Z,0.73
2022-11-20T16:17:44.206Z,0.70
2022-11-20T16:22:02.252Z,0.70
2022-11-20T16:26:18.533Z,0.80
2022-11-20T16:30:30.891Z,0.63
2022-11-20T16:34:43.159Z,0.80
2022-11-20T16:38:57.332Z,0.60
2022-11-20T16:43:12.295Z,0.80
2022-11-20T16:47:24.797Z,0.70
2022-11-20T16:51:37.220Z,1.10
2022-11-20T16:55:49.676Z,0.52
2022-11-20T17:00:02.842Z,0.70
2022-11-20T17:04:15.508Z,0.60
2022-11-20T17:08:31.257Z,0.80
2022-11-20T17:12:44.714Z,0.80
2022-11-20T17:16:57.246Z,0.70
2022-11-20T17:21:09.578Z,1.25
2022-11-20T17:25:33.731Z,1.17
2022-11-20T17:29:46.174Z,1.10
2022-11-20T17:34:01.035Z,1.10
2022-11-20T17:38:13.302Z,0.85
2022-11-20T17:42:28.571Z,1.00
2022-11-20T17:46:41.917Z,1.02
2022-11-20T17:50:54.189Z,0.80
2022-11-20T17:55:06.961Z,0.80
2022-11-20T17:59:19.836Z,0.90
2022-11-20T18:03:32.106Z,1.17
2022-11-20T18:07:44.424Z,1.23
2022-11-20T18:11:56.877Z,1.23
2022-11-20T18:16:09.185Z,1.35
2022-11-20T18:20:29.003Z,1.52
2022-11-20T18:24:42.899Z,1.92
2022-11-20T18:28:55.359Z,2.15
2022-11-20T18:33:18.065Z,1.85
2022-11-20T18:37:32.602Z,1.77
2022-11-20T18:42:03.950Z,2.05
2022-11-20T18:46:26.221Z,1.90
2022-11-20T18:50:39.100Z,1.52
2022-11-20T18:54:52.100Z,1.50
2022-11-20T18:59:06.188Z,1.60
2022-11-20T19:03:18.513Z,2.03
2022-11-20T19:07:31.408Z,1.80
2022-11-20T19:11:44.417Z,1.50
2022-11-20T19:16:03.180Z,1.65
2022-11-20T19:20:15.639Z,2.30
2022-11-20T19:24:29.184Z,1.65
2022-11-20T19:28:41.662Z,2.20
2022-11-20T19:32:53.981Z,1.98
2022-11-20T19:37:06.358Z,1.95
2022-11-20T19:41:21.118Z,1.60
2022-11-20T19:45:33.479Z,2.20
2022-11-20T19:49:45.778Z,1.92
2022-11-20T19:53:59.277Z,2.35
2022-11-20T19:58:11.551Z,2.47
2022-11-20T20:02:23.830Z,2.00
2022-11-20T20:06:39.515Z,1.85
2022-11-20T20:10:56.636Z,2.13
2022-11-20T20:15:11.642Z,2.30
2022-11-20T20:19:24.149Z,2.50
2022-11-20T20:23:36.968Z,1.98
2022-11-20T20:27:49.294Z,1.95
2022-11-20T20:32:01.705Z,2.10
2022-11-20T20:36:16.700Z,2.60
2022-11-20T20:40:28.965Z,2.05
2022-11-20T20:44:59.959Z,2.40
2022-11-20T20:49:12.228Z,1.95
2022-11-20T20:53:25.270Z,1.98
2022-11-20T20:57:38.159Z,2.28
2022-11-20T21:01:50.464Z,2.42
2022-11-20T21:06:04.061Z,2.83
2022-11-20T21:10:21.066Z,2.28
2022-11-20T21:14:36.142Z,2.20
2022-11-20T21:18:49.219Z,2.05
2022-11-20T21:23:01.523Z,1.58
2022-11-20T21:27:13.838Z,2.00
2022-11-20T21:31:27.452Z,1.90
2022-11-20T21:35:39.767Z,2.00
2022-11-20T21:39:52.741Z,1.13
2022-11-20T21:48:40.636Z,1.05
2022-11-20T21:52:53.480Z,1.30
2022-11-20T21:57:05.753Z,1.13
2022-11-20T22:01:29.151Z,0.60
2022-11-20T22:05:41.643Z,1.10
2022-11-20T22:09:53.899Z,1.00
2022-11-20T22:14:21.680Z,0.93
2022-11-20T22:18:34.208Z,0.90
2022-11-20T22:22:46.503Z,0.70
2022-11-20T22:26:59.254Z,0.93
2022-11-20T22:31:11.997Z,1.20
2022-11-20T22:35:24.260Z,0.95
2022-11-20T22:39:37.625Z,1.15
2022-11-20T22:43:54.909Z,1.00
2022-11-20T22:48:07.250Z,1.10
2022-11-20T22:52:19.538Z,0.93
2022-11-20T22:56:39.850Z,0.80
2022-11-20T23:00:52.764Z,0.80
2022-11-20T23:05:05.289Z,0.55
2022-11-20T23:09:18.285Z,0.70
2022-11-20T23:13:31.035Z,0.47
2022-11-20T23:17:43.567Z,0.60
2022-11-20T23:21:55.851Z,0.50
2022-11-20T23:26:11.135Z,0.30
2022-11-20T23:30:23.428Z,0.40
2022-11-20T23:34:35.683Z,0.32
2022-11-20T23:38:48.087Z,0.30
2022-11-20T23:43:18.653Z,0.43
2022-11-20T23:47:30.918Z,0.15
2022-11-20T23:51:43.182Z,0.30
2022-11-20T23:55:59.336Z,0.45
